Time,TemperatureF,DewpointF,PressureIn,WindDirection,WindDirectionDegrees,WindSpeedMPH,WindSpeedGustMPH,Humidity,HourlyPrecipIn,Conditions,Clouds,dailyrainin,SoftwareType,DateUTC
2013-03-13 00:00:00,32.5,23.9,29.86,WSW,240,13.2,16.3,70,0.00,,,0.00,VWS V14.01,2013-03-13 04:00:00,
2013-03-13 00:02:00,32.4,23.7,29.86,South,188,6.3,13.2,70,0.00,,,0.00,VWS V14.01,2013-03-13 04:02:00,
2013-03-13 00:05:00,32.4,23.7,29.86,SSW,205,10.5,13.2,70,0.00,,,0.00,VWS V14.01,2013-03-13 04:05:00,
2013-03-13 00:10:00,32.4,23.7,29.86,SW,222,9.6,10.5,70,0.00,,,0.00,VWS V14.01,2013-03-13 04:10:00,
2013-03-13 00:15:00,32.4,23.7,29.86,WSW,245,8.1,8.7,70,0.00,,,0.00,VWS V14.01,2013-03-13 04:15:00,
2013-03-13 00:21:00,32.2,23.5,29.86,SW,223,8.3,12.8,70,0.00,,,0.00,VWS V14.01,2013-03-13 04:21:00,
2013-03-13 00:26:00,32.2,23.5,29.86,WSW,254,7.6,10.1,70,0.00,,,0.00,VWS V14.01,2013-03-13 04:26:00,
2013-03-13 00:31:00,32.2,23.5,29.86,West,263,5.4,15.0,70,0.00,,,0.00,VWS V14.01,2013-03-13 04:31:00,
2013-03-13 00:36:00,32.2,23.5,29.86,SSW,212,5.4,15.4,70,0.00,,,0.00,VWS V14.01,2013-03-13 04:36:00,
2013-03-13 00:42:00,32.2,23.5,29.86,SSW,209,8.1,14.1,70,0.00,,,0.00,VWS V14.01,2013-03-13 04:42:00,
2013-03-13 00:47:00,32.2,23.5,29.86,SW,215,8.3,11.0,70,0.00,,,0.00,VWS V14.01,2013-03-13 04:47:00,
2013-03-13 00:52:00,32.2,23.2,29.83,South,182,9.6,14.5,69,0.00,,,0.00,VWS V14.01,2013-03-13 04:52:00,
2013-03-13 00:57:00,32.2,23.2,29.83,WSW,258,14.1,15.0,69,0.00,,,0.00,VWS V14.01,2013-03-13 04:57:00,
2013-03-13 01:02:00,32.2,23.2,29.83,SW,225,10.5,13.2,69,0.00,,,0.00,VWS V14.01,2013-03-13 05:02:00,
2013-03-13 01:08:00,32.2,23.2,29.86,West,261,8.1,13.2,69,0.00,,,0.00,VWS V14.01,2013-03-13 05:08:00,
2013-03-13 01:13:00,32.2,23.2,29.86,WSW,244,3.1,13.6,69,0.00,,,0.00,VWS V14.01,2013-03-13 05:13:00,
2013-03-13 01:18:00,32.2,23.2,29.86,SSW,207,13.6,15.0,69,0.00,,,0.00,VWS V14.01,2013-03-13 05:18:00,
2013-03-13 01:23:00,32.0,23.0,29.86,SW,231,5.4,18.8,69,0.00,,,0.00,VWS V14.01,2013-03-13 05:23:00,
2013-03-13 01:28:00,32.0,23.0,29.86,WSW,248,12.8,13.6,69,0.00,,,0.00,VWS V14.01,2013-03-13 05:28:00,
2013-03-13 01:33:00,32.0,23.0,29.86,SW,236,7.6,12.8,69,0.00,,,0.00,VWS V14.01,2013-03-13 05:33:00,
2013-03-13 01:38:00,32.0,23.0,29.86,WSW,245,10.5,10.5,69,0.00,,,0.00,VWS V14.01,2013-03-13 05:38:00,
2013-03-13 01:43:00,32.0,23.0,29.86,WSW,239,8.3,13.2,69,0.00,,,0.00,VWS V14.01,2013-03-13 05:43:00,
2013-03-13 01:48:00,32.0,22.6,29.86,WSW,238,7.6,11.0,68,0.00,,,0.00,VWS V14.01,2013-03-13 05:48:00,
2013-03-13 01:53:00,32.0,22.6,29.86,WSW,257,8.7,15.0,68,0.00,,,0.00,VWS V14.01,2013-03-13 05:53:00,
2013-03-13 01:58:00,32.0,22.6,29.86,SW,234,10.5,11.0,68,0.00,,,0.00,VWS V14.01,2013-03-13 05:58:00,
2013-03-13 02:03:00,32.0,22.6,29.86,SW,215,9.2,11.0,68,0.00,,,0.00,VWS V14.01,2013-03-13 06:03:00,
2013-03-13 02:08:00,32.0,22.6,29.86,SW,233,11.0,13.2,68,0.00,,,0.00,VWS V14.01,2013-03-13 06:08:00,
2013-03-13 02:14:00,32.0,22.6,29.86,West,264,5.8,12.3,68,0.00,,,0.00,VWS V14.01,2013-03-13 06:14:00,
2013-03-13 02:19:00,32.0,22.6,29.86,West,271,5.8,11.0,68,0.00,,,0.00,VWS V14.01,2013-03-13 06:19:00,
2013-03-13 02:24:00,32.0,22.6,29.83,SSW,211,11.0,11.0,68,0.00,,,0.00,VWS V14.01,2013-03-13 06:24:00,
2013-03-13 02:29:00,32.0,22.6,29.83,West,261,3.1,11.0,68,0.00,,,0.00,VWS V14.01,2013-03-13 06:29:00,
2013-03-13 02:34:00,32.0,22.3,29.83,SW,225,5.8,11.0,67,0.00,,,0.00,VWS V14.01,2013-03-13 06:34:00,
2013-03-13 02:39:00,32.0,22.3,29.83,WSW,246,5.8,8.7,67,0.00,,,0.00,VWS V14.01,2013-03-13 06:39:00,
2013-03-13 02:44:00,32.0,22.3,29.83,WSW,252,10.1,11.9,67,0.00,,,0.00,VWS V14.01,2013-03-13 06:44:00,
2013-03-13 02:49:00,32.0,21.9,29.83,NNW,340,5.4,11.0,66,0.00,,,0.00,VWS V14.01,2013-03-13 06:49:00,
2013-03-13 02:54:00,32.0,21.9,29.83,WNW,290,6.3,9.6,66,0.00,,,0.00,VWS V14.01,2013-03-13 06:54:00,
2013-03-13 02:59:00,32.0,21.9,29.83,SW,215,3.6,10.1,66,0.00,,,0.00,VWS V14.01,2013-03-13 06:59:00,
2013-03-13 03:04:00,31.8,21.8,29.83,WSW,246,6.3,8.1,66,0.00,,,0.00,VWS V14.01,2013-03-13 07:04:00,
2013-03-13 03:09:00,31.6,21.2,29.83,SW,221,5.8,10.5,65,0.00,,,0.00,VWS V14.01,2013-03-13 07:09:00,
2013-03-13 03:14:00,31.5,21.1,29.83,SW,214,6.3,10.5,65,0.00,,,0.00,VWS V14.01,2013-03-13 07:14:00,
2013-03-13 03:19:00,31.3,20.9,29.83,SW,231,7.6,11.4,65,0.00,,,0.00,VWS V14.01,2013-03-13 07:19:00,
2013-03-13 03:24:00,31.1,20.7,29.83,WSW,246,7.2,8.7,65,0.00,,,0.00,VWS V14.01,2013-03-13 07:24:00,
2013-03-13 03:30:00,31.1,20.7,29.83,WSW,246,3.6,10.5,65,0.00,,,0.00,VWS V14.01,2013-03-13 07:30:00,
2013-03-13 03:35:00,30.9,20.5,29.83,WSW,244,8.7,9.2,65,0.00,,,0.00,VWS V14.01,2013-03-13 07:35:00,
2013-03-13 03:40:00,30.9,20.5,29.83,WSW,249,5.4,8.7,65,0.00,,,0.00,VWS V14.01,2013-03-13 07:40:00,
2013-03-13 03:45:00,30.9,20.5,29.83,SW,230,8.3,11.4,65,0.00,,,0.00,VWS V14.01,2013-03-13 07:45:00,
2013-03-13 03:50:00,30.9,20.5,29.83,SW,220,5.4,5.4,65,0.00,,,0.00,VWS V14.01,2013-03-13 07:50:00,
2013-03-13 03:55:00,30.7,20.4,29.83,WSW,245,8.7,8.7,65,0.00,,,0.00,VWS V14.01,2013-03-13 07:55:00,
2013-03-13 04:00:00,30.7,20.4,29.83,WSW,241,6.3,6.3,65,0.00,,,0.00,VWS V14.01,2013-03-13 08:00:00,
2013-03-13 04:08:00,30.9,20.5,29.80,WSW,246,5.8,14.1,65,0.00,,,0.00,VWS V14.01,2013-03-13 08:08:00,
2013-03-13 04:13:00,31.1,20.7,29.80,WSW,238,5.4,12.3,65,0.00,,,0.00,VWS V14.01,2013-03-13 08:13:00,
2013-03-13 04:18:00,31.1,20.7,29.80,SW,224,10.1,12.8,65,0.00,,,0.00,VWS V14.01,2013-03-13 08:18:00,
2013-03-13 04:23:00,31.1,20.7,29.80,WSW,255,6.3,9.6,65,0.00,,,0.00,VWS V14.01,2013-03-13 08:23:00,
2013-03-13 04:28:00,31.1,20.7,29.80,WSW,251,5.8,8.1,65,0.00,,,0.00,VWS V14.01,2013-03-13 08:28:00,
2013-03-13 04:33:00,31.3,20.9,29.80,West,259,6.3,12.3,65,0.00,,,0.00,VWS V14.01,2013-03-13 08:33:00,
2013-03-13 04:38:00,31.1,20.7,29.80,WSW,244,7.6,10.5,65,0.00,,,0.00,VWS V14.01,2013-03-13 08:38:00,
2013-03-13 04:43:00,31.1,20.4,29.80,WSW,248,10.5,10.5,64,0.00,,,0.00,VWS V14.01,2013-03-13 08:43:00,
2013-03-13 04:48:00,30.9,20.2,29.80,WSW,244,5.8,8.3,64,0.00,,,0.00,VWS V14.01,2013-03-13 08:48:00,
2013-03-13 04:54:00,30.9,20.2,29.80,SSW,208,5.4,10.1,64,0.00,,,0.00,VWS V14.01,2013-03-13 08:54:00,
2013-03-13 04:59:00,30.9,20.2,29.80,WSW,250,4.0,10.1,64,0.00,,,0.00,VWS V14.01,2013-03-13 08:59:00,
2013-03-13 05:04:00,30.9,20.2,29.80,WSW,257,5.4,10.5,64,0.00,,,0.00,VWS V14.01,2013-03-13 09:04:00,
2013-03-13 05:09:00,30.7,20.0,29.80,WSW,239,4.0,8.1,64,0.00,,,0.00,VWS V14.01,2013-03-13 09:09:00,
2013-03-13 05:14:00,30.7,20.0,29.80,SW,236,4.9,9.6,64,0.00,,,0.00,VWS V14.01,2013-03-13 09:14:00,
2013-03-13 05:19:00,30.7,20.0,29.80,WSW,238,4.0,8.1,64,0.00,,,0.00,VWS V14.01,2013-03-13 09:19:00,
2013-03-13 05:24:00,30.7,20.0,29.80,SW,215,8.7,10.1,64,0.00,,,0.00,VWS V14.01,2013-03-13 09:24:00,
2013-03-13 05:29:00,30.7,20.0,29.80,WSW,240,6.3,12.3,64,0.00,,,0.00,VWS V14.01,2013-03-13 09:29:00,
2013-03-13 05:34:00,30.9,20.2,29.80,SW,230,6.3,8.1,64,0.00,,,0.00,VWS V14.01,2013-03-13 09:34:00,
2013-03-13 05:39:00,30.9,20.2,29.80,SW,228,4.0,6.3,64,0.00,,,0.00,VWS V14.01,2013-03-13 09:39:00,
2013-03-13 05:44:00,30.7,20.0,29.80,SSW,204,4.0,8.1,64,0.00,,,0.00,VWS V14.01,2013-03-13 09:44:00,
2013-03-13 05:49:00,30.6,20.2,29.80,SSW,211,3.1,8.1,65,0.00,,,0.00,VWS V14.01,2013-03-13 09:49:00,
2013-03-13 05:54:00,30.6,20.2,29.80,SW,226,8.3,10.1,65,0.00,,,0.00,VWS V14.01,2013-03-13 09:54:00,
2013-03-13 05:59:00,30.6,20.2,29.80,SW,234,8.1,9.2,65,0.00,,,0.00,VWS V14.01,2013-03-13 09:59:00,
2013-03-13 06:04:00,30.4,20.0,29.80,SW,233,4.9,10.1,65,0.00,,,0.00,VWS V14.01,2013-03-13 10:04:00,
2013-03-13 06:10:00,30.4,20.0,29.80,SW,220,4.9,7.6,65,0.00,,,0.00,VWS V14.01,2013-03-13 10:10:00,
2013-03-13 06:15:00,30.4,20.0,29.80,SW,219,5.4,13.2,65,0.00,,,0.00,VWS V14.01,2013-03-13 10:15:00,
2013-03-13 06:20:00,30.4,20.0,29.80,SW,221,8.1,11.0,65,0.00,,,0.00,VWS V14.01,2013-03-13 10:20:00,
2013-03-13 06:25:00,30.4,20.0,29.80,SW,224,7.6,10.5,65,0.00,,,0.00,VWS V14.01,2013-03-13 10:25:00,
2013-03-13 06:30:00,30.4,20.0,29.80,West,262,5.4,10.1,65,0.00,,,0.00,VWS V14.01,2013-03-13 10:30:00,
2013-03-13 06:35:00,30.2,19.9,29.80,SSW,209,8.1,8.3,65,0.00,,BKN060,0.00,VWS V14.01,2013-03-13 10:35:00,
2013-03-13 06:40:00,30.2,19.9,29.80,SW,221,5.4,10.5,65,0.00,,BKN060,0.00,VWS V14.01,2013-03-13 10:40:00,
2013-03-13 06:45:00,30.2,20.2,29.80,SSW,213,5.4,8.3,66,0.00,,BKN060,0.00,VWS V14.01,2013-03-13 10:45:00,
2013-03-13 06:50:00,30.0,20.0,29.80,SW,231,4.0,7.6,66,0.00,,BKN060,0.00,VWS V14.01,2013-03-13 10:50:00,
2013-03-13 06:55:00,30.0,20.0,29.80,SSW,192,5.8,6.3,66,0.00,,BKN060,0.00,VWS V14.01,2013-03-13 10:55:00,
2013-03-13 07:00:00,30.0,19.7,29.80,WSW,250,4.0,7.6,65,0.00,,BKN060,0.00,VWS V14.01,2013-03-13 11:00:00,
2013-03-13 07:05:00,30.0,19.7,29.80,WSW,239,3.1,6.3,65,0.00,,BKN060,0.00,VWS V14.01,2013-03-13 11:05:00,
2013-03-13 07:10:00,30.2,19.9,29.80,SW,221,5.4,8.3,65,0.00,,BKN060,0.00,VWS V14.01,2013-03-13 11:10:00,
2013-03-13 07:15:00,30.0,19.7,29.80,WSW,253,3.6,6.3,65,0.00,,BKN060,0.00,VWS V14.01,2013-03-13 11:15:00,
2013-03-13 07:20:00,30.2,19.9,29.80,SSW,209,8.1,9.2,65,0.00,,BKN060,0.00,VWS V14.01,2013-03-13 11:20:00,
2013-03-13 07:26:00,30.2,19.9,29.80,SW,219,7.6,10.1,65,0.00,,BKN060,0.00,VWS V14.01,2013-03-13 11:26:00,
2013-03-13 07:31:00,30.2,19.9,29.80,WSW,238,7.6,8.7,65,0.00,,BKN060,0.00,VWS V14.01,2013-03-13 11:31:00,
2013-03-13 07:36:00,30.4,19.7,29.80,SW,224,5.8,7.6,64,0.00,,BKN034,0.00,VWS V14.01,2013-03-13 11:36:00,
2013-03-13 07:41:00,30.6,19.9,29.80,WNW,300,6.3,6.3,64,0.00,,BKN034,0.00,VWS V14.01,2013-03-13 11:41:00,
2013-03-13 07:46:00,30.7,20.0,29.80,WSW,255,6.3,6.3,64,0.00,,BKN034,0.00,VWS V14.01,2013-03-13 11:46:00,
2013-03-13 07:51:00,30.7,19.6,29.80,SW,223,6.7,10.5,63,0.00,,BKN034,0.00,VWS V14.01,2013-03-13 11:51:00,
2013-03-13 07:56:00,30.7,20.0,29.80,SW,227,4.9,8.1,64,0.00,,BKN034,0.00,VWS V14.01,2013-03-13 11:56:00,
2013-03-13 08:02:00,31.1,20.4,29.80,WSW,249,5.8,10.1,64,0.00,,,0.00,VWS V14.01,2013-03-13 12:02:00,
2013-03-13 08:07:00,31.1,20.7,29.80,West,259,3.1,10.5,65,0.00,,,0.00,VWS V14.01,2013-03-13 12:07:00,
2013-03-13 08:12:00,31.3,20.9,29.80,SW,232,5.8,9.6,65,0.00,,,0.00,VWS V14.01,2013-03-13 12:12:00,
2013-03-13 08:17:00,31.3,21.3,29.80,SW,218,7.6,8.1,66,0.00,,,0.00,VWS V14.01,2013-03-13 12:17:00,
2013-03-13 08:22:00,31.5,21.4,29.80,West,269,4.9,8.3,66,0.00,,,0.00,VWS V14.01,2013-03-13 12:22:00,
2013-03-13 08:27:00,31.6,21.2,29.80,SW,216,10.5,10.5,65,0.00,,,0.00,VWS V14.01,2013-03-13 12:27:00,
2013-03-13 08:32:00,31.6,21.2,29.80,West,262,10.5,10.5,65,0.00,,,0.00,VWS V14.01,2013-03-13 12:32:00,
2013-03-13 08:37:00,31.8,21.0,29.80,WSW,250,9.6,9.6,64,0.00,,,0.00,VWS V14.01,2013-03-13 12:37:00,
2013-03-13 08:42:00,32.0,21.2,29.80,SW,236,7.6,8.7,64,0.00,,,0.00,VWS V14.01,2013-03-13 12:42:00,
2013-03-13 08:47:00,32.2,21.0,29.80,West,272,14.1,14.1,63,0.00,,,0.00,VWS V14.01,2013-03-13 12:47:00,
2013-03-13 08:52:00,32.2,21.0,29.80,West,268,12.8,12.8,63,0.00,,,0.00,VWS V14.01,2013-03-13 12:52:00,
2013-03-13 08:57:00,32.4,21.2,29.80,SW,223,12.3,12.3,63,0.00,,,0.00,VWS V14.01,2013-03-13 12:57:00,
2013-03-13 09:02:00,32.0,21.2,29.80,WSW,242,6.3,12.8,64,0.00,,,0.00,VWS V14.01,2013-03-13 13:02:00,
2013-03-13 09:07:00,31.6,20.9,29.80,SW,236,8.1,12.3,64,0.00,,,0.00,VWS V14.01,2013-03-13 13:07:00,
2013-03-13 09:13:00,31.8,21.4,29.80,WSW,251,7.6,11.0,65,0.00,,,0.00,VWS V14.01,2013-03-13 13:13:00,
2013-03-13 09:18:00,32.0,21.6,29.80,SW,229,4.0,10.5,65,0.00,,,0.00,VWS V14.01,2013-03-13 13:18:00,
2013-03-13 09:23:00,32.2,22.5,29.80,WSW,245,5.8,11.4,67,0.00,,,0.00,VWS V14.01,2013-03-13 13:23:00,
2013-03-13 09:28:00,32.5,22.8,29.80,SW,231,9.2,13.2,67,0.00,,,0.00,VWS V14.01,2013-03-13 13:28:00,
2013-03-13 09:33:00,32.7,22.6,29.80,WSW,241,5.4,10.1,66,0.00,,,0.00,VWS V14.01,2013-03-13 13:33:00,
2013-03-13 09:38:00,33.1,22.6,29.80,SSW,203,5.8,8.3,65,0.00,,,0.00,VWS V14.01,2013-03-13 13:38:00,
2013-03-13 09:43:00,33.1,22.2,29.80,NW,312,5.8,10.5,64,0.00,,,0.00,VWS V14.01,2013-03-13 13:43:00,
2013-03-13 09:48:00,32.7,21.5,29.80,SW,236,8.1,14.5,63,0.00,,,0.00,VWS V14.01,2013-03-13 13:48:00,
2013-03-13 09:53:00,32.5,21.4,29.80,West,262,3.6,9.6,63,0.00,,,0.00,VWS V14.01,2013-03-13 13:53:00,
2013-03-13 09:58:00,32.5,21.7,29.80,West,272,5.4,9.6,64,0.00,,,0.00,VWS V14.01,2013-03-13 13:58:00,
2013-03-13 10:03:00,33.1,23.0,29.80,SW,224,4.0,8.1,66,0.00,,,0.00,VWS V14.01,2013-03-13 14:03:00,
2013-03-13 10:08:00,33.3,23.1,29.80,SW,225,5.8,9.6,66,0.00,,,0.00,VWS V14.01,2013-03-13 14:08:00,
2013-03-13 10:13:00,34.0,24.2,29.80,SSW,213,11.0,12.8,67,0.00,,,0.00,VWS V14.01,2013-03-13 14:13:00,
2013-03-13 10:19:00,34.0,22.7,29.80,SW,226,7.6,12.8,63,0.00,,,0.00,VWS V14.01,2013-03-13 14:19:00,
2013-03-13 10:24:00,33.6,22.0,29.80,West,263,5.8,12.8,62,0.00,,,0.00,VWS V14.01,2013-03-13 14:24:00,
2013-03-13 10:29:00,33.3,22.0,29.80,SW,221,5.8,14.1,63,0.00,,,0.00,VWS V14.01,2013-03-13 14:29:00,
2013-03-13 10:34:00,33.6,23.1,29.80,WSW,237,5.8,10.5,65,0.00,,,0.00,VWS V14.01,2013-03-13 14:34:00,
2013-03-13 10:39:00,33.3,22.8,29.80,West,259,10.1,14.5,65,0.00,,,0.00,VWS V14.01,2013-03-13 14:39:00,
2013-03-13 10:44:00,33.3,23.1,29.80,SSW,213,8.7,10.5,66,0.00,,,0.00,VWS V14.01,2013-03-13 14:44:00,
2013-03-13 10:49:00,33.8,23.7,29.80,SW,223,5.4,11.0,66,0.00,,,0.00,VWS V14.01,2013-03-13 14:49:00,
2013-03-13 10:55:00,34.0,23.1,29.78,WSW,258,7.6,12.3,64,0.00,,,0.00,VWS V14.01,2013-03-13 14:55:00,
2013-03-13 11:00:00,34.3,23.1,29.78,SSW,207,5.8,8.7,63,0.00,,,0.00,VWS V14.01,2013-03-13 15:00:00,
2013-03-13 11:05:00,34.2,21.7,29.78,WSW,237,10.5,18.8,60,0.00,,,0.00,VWS V14.01,2013-03-13 15:05:00,
2013-03-13 11:10:00,33.6,20.8,29.78,SW,221,10.5,12.8,59,0.00,,,0.00,VWS V14.01,2013-03-13 15:10:00,
2013-03-13 11:15:00,33.6,21.2,29.78,WSW,246,13.2,13.2,60,0.00,,,0.00,VWS V14.01,2013-03-13 15:15:00,
2013-03-13 11:20:00,34.0,22.4,29.78,SW,229,8.1,12.8,62,0.00,,,0.00,VWS V14.01,2013-03-13 15:20:00,
2013-03-13 11:25:00,35.1,23.8,29.78,SSW,211,5.8,10.1,63,0.00,,,0.00,VWS V14.01,2013-03-13 15:25:00,
2013-03-13 11:30:00,34.9,22.8,29.78,SW,231,10.1,15.0,61,0.00,,,0.00,VWS V14.01,2013-03-13 15:30:00,
2013-03-13 11:35:00,34.9,22.0,29.78,SSW,206,14.1,15.4,59,0.00,,,0.00,VWS V14.01,2013-03-13 15:35:00,
2013-03-13 11:40:00,34.9,21.6,29.78,WSW,237,8.1,19.7,58,0.00,,,0.00,VWS V14.01,2013-03-13 15:40:00,
2013-03-13 11:46:00,34.3,21.1,29.78,WSW,252,8.3,17.0,58,0.00,,,0.00,VWS V14.01,2013-03-13 15:46:00,
2013-03-13 11:53:00,32.5,23.9,29.80,SW,235,13.2,15.4,70,0.00,,,0.00,VWS V14.01,2013-03-13 15:53:00,
2013-03-13 11:58:00,32.0,24.7,29.80,WSW,239,3.1,17.0,74,0.00,,,0.00,VWS V14.01,2013-03-13 15:58:00,
2013-03-13 12:03:00,32.2,25.2,29.80,South,182,8.3,12.8,75,0.00,,,0.00,VWS V14.01,2013-03-13 16:03:00,
2013-03-13 12:09:00,32.5,25.8,29.80,WSW,254,9.2,13.2,76,0.00,,,0.00,VWS V14.01,2013-03-13 16:09:00,
2013-03-13 12:14:00,32.5,25.5,29.80,SW,229,10.1,10.5,75,0.00,,,0.00,VWS V14.01,2013-03-13 16:14:00,
2013-03-13 12:19:00,32.4,25.6,29.80,SW,222,13.2,15.0,76,0.00,,,0.00,VWS V14.01,2013-03-13 16:19:00,
2013-03-13 12:24:00,32.2,26.1,29.80,SW,235,15.4,20.1,78,0.00,,,0.00,VWS V14.01,2013-03-13 16:24:00,
2013-03-13 12:29:00,32.4,26.3,29.80,WSW,237,6.3,13.6,78,0.00,,,0.00,VWS V14.01,2013-03-13 16:29:00,
2013-03-13 12:34:00,32.7,26.6,29.80,West,260,8.3,15.0,78,0.00,,BKN065,0.00,VWS V14.01,2013-03-13 16:34:00,
2013-03-13 12:39:00,32.7,26.3,29.80,WSW,246,10.5,15.0,77,0.00,,BKN065,0.00,VWS V14.01,2013-03-13 16:39:00,
2013-03-13 12:44:00,32.7,26.0,29.80,WSW,239,8.3,10.5,76,0.00,,BKN065,0.00,VWS V14.01,2013-03-13 16:44:00,
2013-03-13 12:49:00,33.1,26.0,29.80,WSW,258,11.0,17.4,75,0.00,,BKN065,0.00,VWS V14.01,2013-03-13 16:49:00,
2013-03-13 12:54:00,33.3,25.2,29.80,SSW,208,10.5,22.4,72,0.00,,BKN065,0.00,VWS V14.01,2013-03-13 16:54:00,
2013-03-13 12:59:00,33.3,23.5,29.80,SSW,210,6.3,14.5,67,0.00,,BKN065,0.00,VWS V14.01,2013-03-13 16:59:00,
2013-03-13 13:04:00,33.8,24.4,29.80,WNW,288,15.0,17.4,68,0.00,,BKN065,0.00,VWS V14.01,2013-03-13 17:04:00,
2013-03-13 13:09:00,34.2,24.7,29.80,WSW,252,8.7,16.3,68,0.00,,BKN065,0.00,VWS V14.01,2013-03-13 17:09:00,
2013-03-13 13:15:00,33.8,24.4,29.80,WSW,253,15.4,23.3,68,0.00,,BKN065,0.00,VWS V14.01,2013-03-13 17:15:00,
2013-03-13 13:20:00,33.8,24.0,29.80,West,259,13.2,19.7,67,0.00,,BKN065,0.00,VWS V14.01,2013-03-13 17:20:00,
2013-03-13 13:25:00,33.6,23.5,29.80,West,268,12.3,17.4,66,0.00,,BKN065,0.00,VWS V14.01,2013-03-13 17:25:00,
2013-03-13 13:30:00,33.1,21.1,29.80,West,260,15.0,23.3,61,0.00,,BKN065,0.00,VWS V14.01,2013-03-13 17:30:00,
2013-03-13 13:35:00,33.4,22.6,29.78,SSW,205,11.0,15.9,64,0.00,,BKN130,0.00,VWS V14.01,2013-03-13 17:35:00,
2013-03-13 13:40:00,34.0,24.2,29.78,WSW,249,8.1,15.9,67,0.00,,BKN130,0.00,VWS V14.01,2013-03-13 17:40:00,
2013-03-13 13:45:00,33.4,22.2,29.78,WNW,297,8.1,15.4,63,0.00,,BKN130,0.00,VWS V14.01,2013-03-13 17:45:00,
2013-03-13 13:50:00,33.1,21.5,29.78,WSW,257,13.2,23.3,62,0.00,,BKN130,0.00,VWS V14.01,2013-03-13 17:50:00,
2013-03-13 13:55:00,33.1,22.2,29.78,SW,226,5.4,13.6,64,0.00,,BKN130,0.00,VWS V14.01,2013-03-13 17:55:00,
2013-03-13 14:00:00,33.8,24.0,29.78,SSW,212,12.8,20.6,67,0.00,,BKN130,0.00,VWS V14.01,2013-03-13 18:00:00,
2013-03-13 14:05:00,33.6,23.5,29.78,SSW,211,15.0,17.0,66,0.00,,BKN130,0.00,VWS V14.01,2013-03-13 18:05:00,
2013-03-13 14:10:00,34.2,24.4,29.78,WSW,241,12.8,19.7,67,0.00,,BKN130,0.00,VWS V14.01,2013-03-13 18:10:00,
2013-03-13 14:15:00,34.0,24.2,29.78,SSW,213,15.9,29.3,67,0.00,,BKN130,0.00,VWS V14.01,2013-03-13 18:15:00,
2013-03-13 14:21:00,34.0,24.2,29.78,SW,222,19.2,21.5,67,0.00,,BKN130,0.00,VWS V14.01,2013-03-13 18:21:00,
2013-03-13 14:26:00,34.0,24.5,29.78,SW,226,19.7,28.0,68,0.00,,BKN130,0.00,VWS V14.01,2013-03-13 18:26:00,
2013-03-13 14:32:00,33.3,24.2,29.78,South,174,10.5,22.8,69,0.00,,,0.00,VWS V14.01,2013-03-13 18:32:00,
2013-03-13 14:37:00,32.7,24.0,29.78,SSW,201,7.2,11.0,70,0.00,,,0.00,VWS V14.01,2013-03-13 18:37:00,
2013-03-13 14:42:00,32.4,25.0,29.78,WNW,285,4.9,15.4,74,0.00,,,0.00,VWS V14.01,2013-03-13 18:42:00,
2013-03-13 14:47:00,32.0,25.0,29.78,WSW,243,5.8,15.4,75,0.00,,,0.00,VWS V14.01,2013-03-13 18:47:00,
2013-03-13 14:52:00,31.8,24.8,29.80,West,271,14.1,14.1,75,0.00,,,0.00,VWS V14.01,2013-03-13 18:52:00,
2013-03-13 14:57:00,31.8,24.8,29.80,West,272,8.7,21.0,75,0.00,,,0.00,VWS V14.01,2013-03-13 18:57:00,
2013-03-13 15:02:00,31.8,24.8,29.80,WSW,244,11.0,17.4,75,0.00,,,0.00,VWS V14.01,2013-03-13 19:02:00,
2013-03-13 15:08:00,32.2,25.8,29.80,WNW,303,12.8,12.8,77,0.00,,,0.00,VWS V14.01,2013-03-13 19:08:00,
2013-03-13 15:13:00,32.5,26.5,29.80,WSW,248,10.1,13.2,78,0.00,,,0.00,VWS V14.01,2013-03-13 19:13:00,
2013-03-13 15:18:00,32.7,26.6,29.80,WSW,242,13.2,13.2,78,0.00,,,0.00,VWS V14.01,2013-03-13 19:18:00,
2013-03-13 15:23:00,32.7,25.7,29.80,SW,230,8.1,15.4,75,0.00,,,0.00,VWS V14.01,2013-03-13 19:23:00,
2013-03-13 15:28:00,32.9,24.9,29.80,SW,220,3.1,12.3,72,0.00,,,0.00,VWS V14.01,2013-03-13 19:28:00,
2013-03-13 15:33:00,32.9,23.5,29.80,WNW,282,12.8,19.7,68,0.00,,BKN130,0.00,VWS V14.01,2013-03-13 19:33:00,
2013-03-13 15:38:00,32.9,22.1,29.80,West,271,8.7,15.4,64,0.00,,BKN130,0.00,VWS V14.01,2013-03-13 19:38:00,
2013-03-13 15:43:00,32.9,21.7,29.80,WNW,302,14.5,22.8,63,0.00,,BKN130,0.00,VWS V14.01,2013-03-13 19:43:00,
2013-03-13 15:48:00,33.1,21.9,29.80,SW,236,9.2,13.6,63,0.00,,BKN130,0.00,VWS V14.01,2013-03-13 19:48:00,
2013-03-13 15:53:00,33.3,21.3,29.80,SW,232,13.2,21.9,61,0.00,,BKN130,0.00,VWS V14.01,2013-03-13 19:53:00,
2013-03-13 15:58:00,32.9,20.9,29.80,WSW,239,8.3,21.9,61,0.00,,BKN130,0.00,VWS V14.01,2013-03-13 19:58:00,
2013-03-13 16:04:00,32.9,21.3,29.80,WSW,252,13.2,17.9,62,0.00,,BKN130,0.00,VWS V14.01,2013-03-13 20:04:00,
2013-03-13 16:09:00,32.9,20.9,29.80,WSW,238,5.8,17.9,61,0.00,,BKN130,0.00,VWS V14.01,2013-03-13 20:09:00,
2013-03-13 16:14:00,32.7,20.8,29.80,WSW,252,13.2,15.9,61,0.00,,BKN130,0.00,VWS V14.01,2013-03-13 20:14:00,
2013-03-13 16:19:00,32.2,19.5,29.80,SW,224,11.4,14.5,59,0.00,,BKN130,0.00,VWS V14.01,2013-03-13 20:19:00,
2013-03-13 16:24:00,32.0,19.3,29.80,SW,228,7.6,19.7,59,0.00,,BKN130,0.00,VWS V14.01,2013-03-13 20:24:00,
2013-03-13 16:29:00,31.1,15.5,29.80,WSW,238,10.1,22.4,52,0.00,,BKN130,0.00,VWS V14.01,2013-03-13 20:29:00,
2013-03-13 16:34:00,31.6,16.9,29.80,SW,214,11.9,22.4,54,0.00,,BKN130,0.00,VWS V14.01,2013-03-13 20:34:00,
2013-03-13 16:39:00,32.2,18.3,29.80,SW,232,22.8,22.8,56,0.00,,BKN130,0.00,VWS V14.01,2013-03-13 20:39:00,
2013-03-13 16:44:00,32.0,18.1,29.80,SSW,203,17.0,17.0,56,0.00,,BKN130,0.00,VWS V14.01,2013-03-13 20:44:00,
2013-03-13 16:49:00,31.5,17.2,29.80,SW,227,8.1,19.7,55,0.00,,BKN130,0.00,VWS V14.01,2013-03-13 20:49:00,
2013-03-13 16:54:00,31.6,16.5,29.80,West,263,16.8,19.7,53,0.00,,BKN130,0.00,VWS V14.01,2013-03-13 20:54:00,
2013-03-13 16:59:00,31.1,14.6,29.80,WSW,248,23.3,23.3,50,0.00,,BKN130,0.00,VWS V14.01,2013-03-13 20:59:00,
2013-03-13 17:04:00,31.3,15.7,29.80,SSW,203,15.4,21.9,52,0.00,,BKN140,0.00,VWS V14.01,2013-03-13 21:04:00,
2013-03-13 17:09:00,30.9,14.9,29.80,SW,216,13.2,15.4,51,0.00,,BKN140,0.00,VWS V14.01,2013-03-13 21:09:00,
2013-03-13 17:14:00,30.9,15.8,29.80,SW,233,8.7,18.8,53,0.00,,BKN140,0.00,VWS V14.01,2013-03-13 21:14:00,
2013-03-13 17:19:00,30.9,15.8,29.80,SE,135,13.2,18.3,53,0.00,,BKN140,0.00,VWS V14.01,2013-03-13 21:19:00,
2013-03-13 17:24:00,30.6,15.0,29.80,WSW,248,8.1,25.7,52,0.00,,BKN140,0.00,VWS V14.01,2013-03-13 21:24:00,
2013-03-13 17:29:00,30.4,15.3,29.80,WSW,243,21.0,21.0,53,0.00,,BKN140,0.00,VWS V14.01,2013-03-13 21:29:00,
2013-03-13 17:34:00,30.2,15.1,29.80,West,260,11.0,23.7,53,0.00,,,0.00,VWS V14.01,2013-03-13 21:34:00,
2013-03-13 17:39:00,30.4,16.2,29.83,WSW,247,6.3,14.5,55,0.00,,,0.00,VWS V14.01,2013-03-13 21:39:00,
2013-03-13 17:45:00,29.8,14.4,29.83,West,259,11.4,26.6,52,0.00,,,0.00,VWS V14.01,2013-03-13 21:45:00,
2013-03-13 17:50:00,29.1,12.4,29.83,WSW,241,11.4,18.3,49,0.00,,,0.00,VWS V14.01,2013-03-13 21:50:00,
2013-03-13 17:55:00,28.9,13.1,29.83,South,188,11.0,12.8,51,0.00,,,0.00,VWS V14.01,2013-03-13 21:55:00,
2013-03-13 18:00:00,28.6,11.9,29.83,SW,217,21.0,22.4,49,0.00,,,0.00,VWS V14.01,2013-03-13 22:00:00,
2013-03-13 18:05:00,28.4,12.6,29.83,West,261,17.4,17.4,51,0.00,,,0.00,VWS V14.01,2013-03-13 22:05:00,
2013-03-13 18:10:00,28.4,13.0,29.83,West,260,13.6,13.6,52,0.00,,,0.00,VWS V14.01,2013-03-13 22:10:00,
2013-03-13 18:15:00,28.4,13.9,29.83,SW,223,12.8,19.7,54,0.00,,,0.00,VWS V14.01,2013-03-13 22:15:00,
2013-03-13 18:21:00,28.0,16.0,29.83,WSW,240,16.8,18.3,60,0.00,,,0.00,VWS V14.01,2013-03-13 22:21:00,
2013-03-13 18:26:00,27.5,18.3,29.83,WSW,246,11.0,15.0,68,0.00,,,0.00,VWS V14.01,2013-03-13 22:26:00,
2013-03-13 18:32:00,27.0,18.5,29.83,WSW,246,4.0,13.2,70,0.00,,BKN055,0.00,VWS V14.01,2013-03-13 22:32:00,
2013-03-13 18:37:00,27.0,18.2,29.83,West,279,5.8,12.3,69,0.00,,BKN055,0.00,VWS V14.01,2013-03-13 22:37:00,
2013-03-13 18:42:00,27.0,17.1,29.83,SW,236,12.3,12.3,66,0.00,,BKN055,0.00,VWS V14.01,2013-03-13 22:42:00,
2013-03-13 18:47:00,26.8,16.2,29.83,NW,318,8.1,12.8,64,0.00,,BKN055,0.00,VWS V14.01,2013-03-13 22:47:00,
2013-03-13 18:52:00,26.8,16.2,29.83,SW,235,10.1,15.0,64,0.00,,BKN055,0.00,VWS V14.01,2013-03-13 22:52:00,
2013-03-13 18:58:00,26.8,16.2,29.83,WSW,239,10.5,19.7,64,0.00,,BKN055,0.00,VWS V14.01,2013-03-13 22:58:00,
2013-03-13 19:03:00,26.8,16.6,29.83,West,265,8.1,13.2,65,0.00,,BKN055,0.00,VWS V14.01,2013-03-13 23:03:00,
2013-03-13 19:08:00,26.6,16.1,29.83,WNW,300,10.1,17.4,64,0.00,,BKN055,0.00,VWS V14.01,2013-03-13 23:08:00,
2013-03-13 19:13:00,26.6,16.4,29.83,SW,218,6.3,15.0,65,0.00,,BKN055,0.00,VWS V14.01,2013-03-13 23:13:00,
2013-03-13 19:18:00,26.6,16.8,29.83,WNW,293,3.1,12.8,66,0.00,,BKN055,0.00,VWS V14.01,2013-03-13 23:18:00,
2013-03-13 19:23:00,26.6,16.8,29.83,West,267,5.4,10.5,66,0.00,,BKN055,0.00,VWS V14.01,2013-03-13 23:23:00,
2013-03-13 19:28:00,26.4,14.4,29.83,WSW,242,11.4,17.0,60,0.00,,BKN055,0.00,VWS V14.01,2013-03-13 23:28:00,
2013-03-13 19:33:00,26.4,14.4,29.83,SW,233,8.3,12.3,60,0.00,,,0.00,VWS V14.01,2013-03-13 23:33:00,
2013-03-13 19:38:00,26.2,12.7,29.83,SSW,211,14.5,21.5,56,0.00,,,0.00,VWS V14.01,2013-03-13 23:38:00,
2013-03-13 19:43:00,26.4,13.3,29.83,West,264,5.8,15.0,57,0.00,,,0.00,VWS V14.01,2013-03-13 23:43:00,
2013-03-13 19:48:00,26.4,13.7,29.83,WNW,293,4.0,7.6,58,0.00,,,0.00,VWS V14.01,2013-03-13 23:48:00,
2013-03-13 19:53:00,26.2,13.1,29.86,WSW,253,16.8,16.8,57,0.00,,,0.00,VWS V14.01,2013-03-13 23:53:00,
2013-03-13 19:58:00,26.2,13.1,29.86,SW,219,10.5,12.8,57,0.00,,,0.00,VWS V14.01,2013-03-13 23:58:00,
2013-03-13 20:03:00,26.2,13.1,29.86,WNW,284,8.7,11.4,57,0.00,,,0.00,VWS V14.01,2013-03-14 00:03:00,
2013-03-13 20:09:00,26.2,13.1,29.86,WSW,256,7.6,13.2,57,0.00,,,0.00,VWS V14.01,2013-03-14 00:09:00,
2013-03-13 20:14:00,26.1,12.9,29.86,SW,225,7.6,15.0,57,0.00,,,0.00,VWS V14.01,2013-03-14 00:14:00,
2013-03-13 20:19:00,26.1,12.5,29.86,West,269,7.2,15.4,56,0.00,,,0.00,VWS V14.01,2013-03-14 00:19:00,
2013-03-13 20:24:00,26.1,12.1,29.86,West,277,6.3,14.5,55,0.00,,,0.00,VWS V14.01,2013-03-14 00:24:00,
2013-03-13 20:29:00,26.1,12.9,29.86,West,275,10.5,17.0,57,0.00,,,0.00,VWS V14.01,2013-03-14 00:29:00,
2013-03-13 20:34:00,26.1,13.3,29.86,WSW,246,6.3,13.2,58,0.00,,,0.00,VWS V14.01,2013-03-14 00:34:00,
2013-03-13 20:39:00,25.9,13.1,29.86,West,276,8.1,17.4,58,0.00,,,0.00,VWS V14.01,2013-03-14 00:39:00,
2013-03-13 20:45:00,25.3,14.9,29.86,West,277,7.6,17.4,64,0.00,,,0.00,VWS V14.01,2013-03-14 00:45:00,
2013-03-13 20:50:00,25.0,14.5,29.86,SSW,212,13.2,19.7,64,0.00,,,0.00,VWS V14.01,2013-03-14 00:50:00,
2013-03-13 20:55:00,24.8,13.6,29.86,WSW,245,3.1,4.0,62,0.00,,,0.00,VWS V14.01,2013-03-14 00:55:00,
2013-03-13 21:00:00,24.6,13.1,29.86,NW,306,8.3,8.7,61,0.00,,,0.00,VWS V14.01,2013-03-14 01:00:00,
2013-03-13 21:05:00,24.6,13.1,29.86,WSW,256,13.2,13.2,61,0.00,,,0.00,VWS V14.01,2013-03-14 01:05:00,
2013-03-13 21:10:00,24.4,12.9,29.86,West,277,9.2,9.2,61,0.00,,,0.00,VWS V14.01,2013-03-14 01:10:00,
2013-03-13 21:15:00,24.4,12.9,29.86,SW,236,12.8,15.4,61,0.00,,,0.00,VWS V14.01,2013-03-14 01:15:00,
2013-03-13 21:20:00,24.4,13.7,29.86,SW,232,10.5,12.3,63,0.00,,,0.00,VWS V14.01,2013-03-14 01:20:00,
2013-03-13 21:25:00,24.4,13.7,29.86,WSW,243,12.3,15.4,63,0.00,,,0.00,VWS V14.01,2013-03-14 01:25:00,
2013-03-13 21:30:00,24.4,13.3,29.86,SW,233,10.1,15.4,62,0.00,,,0.00,VWS V14.01,2013-03-14 01:30:00,
2013-03-13 21:35:00,24.4,12.6,29.86,SSW,200,6.3,19.2,60,0.00,,,0.00,VWS V14.01,2013-03-14 01:35:00,
2013-03-13 21:40:00,24.4,11.8,29.86,West,263,12.3,19.2,58,0.00,,,0.00,VWS V14.01,2013-03-14 01:40:00,
2013-03-13 21:45:00,24.4,11.4,29.86,West,269,8.1,18.8,57,0.00,,,0.00,VWS V14.01,2013-03-14 01:45:00,
2013-03-13 21:51:00,24.4,11.4,29.89,West,262,15.0,16.3,57,0.00,,,0.00,VWS V14.01,2013-03-14 01:51:00,
2013-03-13 21:56:00,24.3,11.2,29.89,SSW,196,8.7,17.4,57,0.00,,,0.00,VWS V14.01,2013-03-14 01:56:00,
2013-03-13 22:01:00,24.3,11.2,29.89,WSW,258,4.9,15.0,57,0.00,,,0.00,VWS V14.01,2013-03-14 02:01:00,
2013-03-13 22:06:00,24.3,11.6,29.86,West,272,16.8,16.8,58,0.00,,,0.00,VWS V14.01,2013-03-14 02:06:00,
2013-03-13 22:12:00,24.4,12.2,29.86,West,274,15.0,15.0,59,0.00,,,0.00,VWS V14.01,2013-03-14 02:12:00,
2013-03-13 22:17:00,24.3,12.0,29.86,SSW,209,10.5,15.0,59,0.00,,,0.00,VWS V14.01,2013-03-14 02:17:00,
2013-03-13 22:22:00,24.1,12.6,29.89,WSW,243,10.1,13.6,61,0.00,,,0.00,VWS V14.01,2013-03-14 02:22:00,
2013-03-13 22:27:00,24.1,13.3,29.89,West,267,11.0,11.0,63,0.00,,,0.00,VWS V14.01,2013-03-14 02:27:00,
2013-03-13 22:32:00,23.9,14.6,29.89,West,271,9.6,12.3,67,0.00,,,0.00,VWS V14.01,2013-03-14 02:32:00,
2013-03-13 22:37:00,23.4,16.0,29.89,WSW,256,8.7,10.5,73,0.00,,,0.00,VWS V14.01,2013-03-14 02:37:00,
2013-03-13 22:42:00,23.2,16.8,29.89,WSW,237,12.8,12.8,76,0.00,,,0.00,VWS V14.01,2013-03-14 02:42:00,
2013-03-13 22:47:00,22.8,16.7,29.89,SW,225,3.6,17.4,77,0.00,,,0.00,VWS V14.01,2013-03-14 02:47:00,
2013-03-13 22:53:00,22.6,16.8,29.89,WNW,293,10.5,10.5,78,0.00,,,0.00,VWS V14.01,2013-03-14 02:53:00,
2013-03-13 22:58:00,22.8,16.7,29.89,North,0,4.0,10.1,77,0.00,,,0.00,VWS V14.01,2013-03-14 02:58:00,
2013-03-13 23:03:00,22.6,16.5,29.89,NW,326,4.0,11.0,77,0.00,,,0.00,VWS V14.01,2013-03-14 03:03:00,
2013-03-13 23:08:00,22.6,16.5,29.89,WSW,246,8.7,12.8,77,0.00,,,0.00,VWS V14.01,2013-03-14 03:08:00,
2013-03-13 23:13:00,22.5,16.0,29.89,West,259,11.0,16.3,76,0.00,,,0.00,VWS V14.01,2013-03-14 03:13:00,
2013-03-13 23:18:00,22.5,16.0,29.89,NNW,344,5.8,8.7,76,0.00,,,0.00,VWS V14.01,2013-03-14 03:18:00,
2013-03-13 23:24:00,22.1,15.7,29.89,NNW,328,8.1,13.2,76,0.00,,,0.00,VWS V14.01,2013-03-14 03:24:00,
2013-03-13 23:29:00,21.7,13.8,29.89,West,279,8.1,23.3,71,0.00,,,0.00,VWS V14.01,2013-03-14 03:29:00,
2013-03-13 23:34:00,21.4,11.8,29.89,NW,313,11.0,23.3,66,0.00,,,0.00,VWS V14.01,2013-03-14 03:34:00,
2013-03-13 23:39:00,21.2,12.0,29.89,North,353,7.6,13.2,67,0.00,,,0.00,VWS V14.01,2013-03-14 03:39:00,
2013-03-13 23:44:00,21.0,12.5,29.89,WSW,251,5.4,18.8,69,0.00,,,0.00,VWS V14.01,2013-03-14 03:44:00,
2013-03-13 23:49:00,20.8,12.9,29.89,NW,320,8.7,17.4,71,0.00,,,0.00,VWS V14.01,2013-03-14 03:49:00,
2013-03-13 23:55:00,20.5,13.2,29.89,WNW,284,4.0,19.7,73,0.00,,,0.00,VWS V14.01,2013-03-14 03:55:00,